Time;durP1;ratioP1;P1;durP2;ratioP2;P2;SDS_P1;SDS_P2;PMS_P1;PMS_P2;Temp;Humidity;BMP_temperature;BMP_pressure;BME280_temperature;BME280_humidity;BME280_pressure;Samples;Min_cycle;Max_cycle;Signal;HPM_P1;HPM_P2
2022/12/12 00:02:09;;;;;;;24.90;16.95;;;;;;;5.60;57.08;100961.56;4937962;29;20068;-72
2022/12/12 00:04:36;;;;;;;25.15;16.83;;;;;;;5.56;57.06;100967.09;4932986;29;20075;-73
2022/12/12 00:07:03;;;;;;;24.48;16.73;;;;;;;5.51;57.08;100964.66;4918870;29;20044;-73
2022/12/12 00:09:29;;;;;;;25.58;17.35;;;;;;;5.50;57.08;100967.41;4919067;29;20515;-72
2022/12/12 00:11:56;;;;;;;26.05;16.40;;;;;;;5.49;57.07;100971.88;4918690;29;20048;-74
2022/12/12 00:14:22;;;;;;;26.85;17.38;;;;;;;5.49;57.04;100969.22;4911721;29;20413;-72
2022/12/12 00:16:49;;;;;;;26.27;17.75;;;;;;;5.50;57.16;100973.59;4937734;29;20043;-72
2022/12/12 00:19:15;;;;;;;26.35;16.92;;;;;;;5.48;57.11;100970.16;4937769;29;20048;-73
2022/12/12 00:21:42;;;;;;;26.92;18.00;;;;;;;5.47;57.08;100973.75;4937529;29;20051;-73
2022/12/12 00:24:09;;;;;;;24.30;16.90;;;;;;;5.43;57.15;100975.69;4926635;29;20475;-73
2022/12/12 00:26:36;;;;;;;23.85;16.85;;;;;;;5.42;57.11;100975.75;4918546;29;20451;-72
2022/12/12 00:29:03;;;;;;;24.42;16.50;;;;;;;5.39;57.02;100974.13;4918333;29;20527;-73
2022/12/12 00:31:30;;;;;;;24.30;17.63;;;;;;;5.38;57.03;100982.19;4918485;29;20048;-73
2022/12/12 00:33:57;;;;;;;24.90;16.80;;;;;;;5.39;57.13;100978.56;4917589;29;20458;-72
2022/12/12 00:36:27;;;;;;;28.90;18.52;;;;;;;5.37;57.10;100980.44;4932633;29;20047;-73
2022/12/12 00:38:54;;;;;;;27.50;17.45;;;;;;;5.34;56.99;100983.25;4937423;29;20048;-72
2022/12/12 00:41:21;;;;;;;27.95;18.15;;;;;;;5.34;57.09;100977.94;4937580;29;20036;-73
2022/12/12 00:43:48;;;;;;;26.60;17.42;;;;;;;5.35;57.16;100979.66;4926279;29;20040;-72
2022/12/12 00:46:17;;;;;;;23.77;17.63;;;;;;;5.37;57.20;100980.44;4918415;29;20047;-72
2022/12/12 00:48:44;;;;;;;24.67;17.23;;;;;;;5.36;57.14;100984.03;4918041;29;20048;-72
2022/12/12 00:51:18;;;;;;;24.33;17.27;;;;;;;5.32;57.06;100977.13;4918045;29;20051;-73
2022/12/12 00:53:46;;;;;;;25.80;17.95;;;;;;;5.28;57.01;100971.09;4917868;29;20123;-73
2022/12/12 00:56:15;;;;;;;24.25;16.10;;;;;;;5.28;57.04;100975.56;4900469;29;20036;-73
2022/12/12 00:58:41;;;;;;;27.52;17.98;;;;;;;5.24;56.91;100977.50;4919707;29;20368;-73
2022/12/12 01:01:14;;;;;;;25.50;17.45;;;;;;;5.21;56.85;100980.31;4936534;29;20039;-73
2022/12/12 01:03:41;;;;;;;24.40;16.88;;;;;;;5.20;56.85;100977.69;4936668;29;20095;-72
2022/12/12 01:06:09;;;;;;;26.60;17.98;;;;;;;5.20;57.02;100977.69;4936971;29;20446;-74
2022/12/12 01:08:36;;;;;;;26.08;17.98;;;;;;;5.19;57.06;100983.94;4919954;29;20403;-73
2022/12/12 01:11:04;;;;;;;25.33;17.27;;;;;;;5.19;56.95;100983.94;4917659;29;20040;-73
2022/12/12 01:13:31;;;;;;;26.17;17.38;;;;;;;5.17;56.93;100980.50;4900378;29;20044;-73
2022/12/12 01:15:57;;;;;;;25.50;18.25;;;;;;;5.15;56.83;100985.03;4900705;29;20380;-73
2022/12/12 01:18:24;;;;;;;25.27;17.90;;;;;;;5.14;56.74;100989.47;4917699;29;20372;-73
2022/12/12 01:20:51;;;;;;;25.92;17.52;;;;;;;5.11;57.00;100995.81;4937238;29;20032;-73
2022/12/12 01:23:18;;;;;;;26.85;17.52;;;;;;;5.09;56.95;100997.69;4939822;29;20054;-74
2022/12/12 01:25:44;;;;;;;25.73;18.00;;;;;;;5.06;56.88;101002.28;4936506;29;20054;-73
2022/12/12 01:28:11;;;;;;;27.08;18.10;;;;;;;5.03;56.77;101005.09;4936418;29;20103;-73
2022/12/12 01:30:38;;;;;;;24.73;16.35;;;;;;;5.01;56.86;101009.63;4932274;29;20413;-74
2022/12/12 01:33:04;;;;;;;23.90;16.80;;;;;;;4.97;56.84;101008.03;4898523;29;20052;-74
2022/12/12 01:35:33;;;;;;;25.42;17.70;;;;;;;4.93;56.88;101012.63;4898737;29;20405;-73
2022/12/12 01:37:59;;;;;;;30.20;18.35;;;;;;;4.89;56.83;101019.00;4898455;29;20081;-73
2022/12/12 01:40:29;;;;;;;29.95;17.92;;;;;;;4.85;56.83;101022.75;4898372;29;20462;-73
2022/12/12 01:42:56;;;;;;;25.17;17.23;;;;;;;4.82;56.77;101022.88;4902127;29;20491;-72
2022/12/12 01:45:56;;;;;;;25.10;17.95;;;;;;;4.80;56.94;101027.41;4917260;29;20499;-74
2022/12/12 01:48:29;;;;;;;26.80;16.67;;;;;;;4.81;56.78;101023.81;4916998;29;20056;-73
2022/12/12 01:50:58;;;;;;;29.77;18.02;;;;;;;4.79;56.76;101031.88;4917193;29;20459;-73
2022/12/12 01:53:28;;;;;;;27.48;17.95;;;;;;;4.78;56.83;101035.47;4917084;29;20052;-72
2022/12/12 01:55:56;;;;;;;28.23;18.50;;;;;;;4.76;56.73;101032.00;4925016;29;20065;-72
2022/12/12 01:58:23;;;;;;;23.48;17.17;;;;;;;4.75;56.84;101030.28;4936049;29;20047;-73
2022/12/12 02:00:50;;;;;;;29.90;17.90;;;;;;;4.74;56.82;101027.69;4935138;29;20091;-73
2022/12/12 02:03:17;;;;;;;27.52;17.50;;;;;;;4.73;56.70;101036.59;4935747;29;20115;-73
2022/12/12 02:05:53;;;;;;;27.13;16.70;;;;;;;4.67;56.66;101028.88;4929924;29;20487;-73
2022/12/12 02:08:21;;;;;;;27.80;17.85;;;;;;;4.61;56.59;101032.69;4917139;29;20040;-73
2022/12/12 02:10:48;;;;;;;26.83;17.40;;;;;;;4.54;56.62;101033.00;4916963;29;20447;-73
2022/12/12 02:13:19;;;;;;;26.33;16.45;;;;;;;4.50;56.57;101029.63;4916831;29;20128;-73
2022/12/12 02:16:22;;;;;;;27.92;17.63;;;;;;;4.47;56.67;101037.72;4927264;29;20040;-73
2022/12/12 02:19:10;;;;;;;27.60;17.83;;;;;;;4.46;56.65;101036.88;4935877;29;20461;-72
2022/12/12 02:21:41;;;;;;;28.23;17.48;;;;;;;4.44;56.78;101041.34;4918889;29;20391;-73
2022/12/12 02:24:39;;;;;;;29.10;17.92;;;;;;;4.43;56.75;101036.09;4936919;29;20040;-73
2022/12/12 02:27:43;;;;;;;25.92;17.00;;;;;;;4.40;56.70;101029.13;4936901;29;20047;-73
2022/12/12 02:30:17;;;;;;;28.48;16.92;;;;;;;4.35;56.68;101039.06;4939513;29;20446;-72
2022/12/12 02:32:49;;;;;;;27.50;16.83;;;;;;;4.29;56.54;101036.69;4922419;29;20063;-73
2022/12/12 02:35:33;;;;;;;24.90;16.60;;;;;;;4.21;56.65;101041.44;4939666;29;20055;-73
2022/12/12 02:38:33;;;;;;;28.20;17.03;;;;;;;4.14;56.66;101043.50;4939599;29;20487;-72
2022/12/12 02:41:44;;;;;;;28.83;17.20;;;;;;;4.12;56.74;101044.50;4901938;29;20395;-73
2022/12/12 02:44:23;;;;;;;29.02;17.98;;;;;;;4.08;56.65;101040.25;4898589;29;20049;-73
2022/12/12 02:47:02;;;;;;;26.35;17.23;;;;;;;4.02;56.57;101037.81;4888782;29;20033;-73
2022/12/12 02:49:37;;;;;;;29.35;17.08;;;;;;;3.93;56.53;101022.25;4920518;29;20530;-72
2022/12/12 02:52:05;;;;;;;28.60;17.52;;;;;;;3.85;56.68;101024.38;4920137;29;20056;-72
2022/12/12 02:54:33;;;;;;;26.75;16.70;;;;;;;3.77;56.53;101028.19;4903772;29;20044;-72
2022/12/12 02:57:01;;;;;;;26.65;16.80;;;;;;;3.68;56.66;101027.66;4920002;29;20059;-72
2022/12/12 02:59:39;;;;;;;31.27;18.08;;;;;;;3.63;56.70;101030.50;4920400;29;20109;-72
2022/12/12 03:02:24;;;;;;;31.83;18.73;;;;;;;3.59;56.75;101033.34;4920185;29;20050;-72
2022/12/12 03:08:35;;;;;;;30.92;17.60;;;;;;;3.59;56.91;101026.25;4919064;29;20052;-72
2022/12/12 03:11:11;;;;;;;26.77;18.05;;;;;;;3.63;56.94;101035.81;4920213;29;20048;-73
2022/12/12 03:13:45;;;;;;;31.25;18.15;;;;;;;3.66;57.02;101033.03;4919844;29;20138;-72
2022/12/12 03:16:37;;;;;;;30.02;18.77;;;;;;;3.66;57.14;101027.72;4919530;29;20496;-72
2022/12/12 03:19:26;;;;;;;31.85;18.17;;;;;;;3.67;56.93;101036.56;4938855;29;20490;-72
2022/12/12 03:22:05;;;;;;;33.03;18.98;;;;;;;3.65;56.92;101038.41;4938826;29;20407;-72
2022/12/12 03:25:02;;;;;;;30.48;18.38;;;;;;;3.66;56.95;101035.69;4938733;29;20050;-72
2022/12/12 03:27:46;;;;;;;28.92;18.65;;;;;;;3.65;56.93;101039.28;4938673;29;20055;-72
2022/12/12 03:30:15;;;;;;;41.38;18.98;;;;;;;3.66;56.79;101040.16;4922802;29;20048;-71
2022/12/12 03:32:49;;;;;;;29.48;18.63;;;;;;;3.65;56.77;101046.38;4919370;29;20044;-72
2022/12/12 03:35:25;;;;;;;29.13;18.00;;;;;;;3.62;56.87;101042.06;4919156;29;20048;-72
2022/12/12 03:37:59;;;;;;;;;;;;;;;3.61;56.84;101044.78;4911225;29;20048;-72
2022/12/12 03:40:32;;;;;;;29.45;17.17;;;;;;;3.61;56.93;101042.97;4938536;29;19926;-72
2022/12/12 03:43:06;;;;;;;29.60;18.27;;;;;;;3.60;56.64;101041.25;4921168;29;20397;-71
2022/12/12 03:45:52;;;;;;;31.40;18.85;;;;;;;3.59;56.71;101044.84;4938590;29;20075;-72
2022/12/12 03:48:28;;;;;;;31.75;17.38;;;;;;;3.57;56.62;101044.03;4918916;29;20406;-72
2022/12/12 03:50:58;;;;;;;;;;;;;;;3.55;56.67;101047.66;4922065;29;20044;-72
2022/12/12 03:53:37;;;;;;;28.58;17.30;;;;;;;3.53;56.77;101050.38;4937941;29;20296;-72
2022/12/12 03:56:30;;;;;;;28.38;16.85;;;;;;;3.48;56.73;101057.66;4938182;29;20100;-72
2022/12/12 03:59:13;;;;;;;32.47;19.55;;;;;;;3.45;56.65;101052.47;4934844;29;20039;-72
2022/12/12 04:01:48;;;;;;;26.75;17.60;;;;;;;3.44;56.72;101056.03;4906269;29;20502;-72
2022/12/12 04:04:40;;;;;;;30.23;19.75;;;;;;;3.42;56.85;101056.09;4938266;29;20050;-72
2022/12/12 04:07:20;;;;;;;33.25;19.58;;;;;;;3.41;56.59;101050.84;4931689;29;20044;-73
2022/12/12 04:12:57;;;;;;;;;;;;;;;3.38;56.66;101058.94;4919477;29;20052;-72
2022/12/12 04:15:40;;;;;;;31.42;17.38;;;;;;;3.38;56.65;101057.16;4918784;29;20429;-72
2022/12/12 04:18:24;;;;;;;26.90;17.15;;;;;;;3.36;56.64;101058.13;4917806;29;20100;-72
2022/12/12 04:24:22;;;;;;;30.65;18.10;;;;;;;3.30;56.60;101053.91;4918651;29;20108;-72
2022/12/12 04:27:09;;;;;;;26.73;16.83;;;;;;;3.27;56.65;101046.06;4917813;29;20103;-73
2022/12/12 04:29:49;;;;;;;29.75;17.50;;;;;;;3.27;56.57;101058.47;4918562;29;20048;-72
2022/12/12 04:32:16;;;;;;;28.40;17.42;;;;;;;3.26;56.70;101056.75;4918391;29;20040;-73
2022/12/12 04:35:01;;;;;;;30.30;18.15;;;;;;;3.22;56.67;101053.34;4918605;29;20491;-72
2022/12/12 04:37:37;;;;;;;30.88;16.90;;;;;;;3.19;56.65;101059.63;4908836;29;20043;-73
2022/12/12 04:40:09;;;;;;;29.02;17.63;;;;;;;3.18;56.64;101062.34;4921810;29;20495;-73
2022/12/12 04:42:42;;;;;;;28.02;17.38;;;;;;;3.16;56.45;101066.84;4918352;29;20055;-73
2022/12/12 04:45:14;;;;;;;28.15;16.50;;;;;;;3.13;56.45;101067.81;4918313;29;20048;-72
2022/12/12 04:47:45;;;;;;;29.75;17.27;;;;;;;3.11;56.37;101064.34;4916458;29;20047;-73
2022/12/12 04:50:13;;;;;;;27.23;16.48;;;;;;;3.10;56.46;101064.41;4918333;29;20055;-73
2022/12/12 04:52:42;;;;;;;27.60;16.80;;;;;;;3.06;56.29;101076.06;4917916;29;20495;-73
2022/12/12 04:55:18;;;;;;;30.30;17.60;;;;;;;3.01;56.31;101068.28;4918072;29;20448;-74
2022/12/12 04:57:49;;;;;;;26.55;16.88;;;;;;;2.98;56.33;101073.69;4917046;29;20052;-73
2022/12/12 05:00:16;;;;;;;28.58;17.30;;;;;;;2.97;56.44;101074.56;4917984;29;20063;-72
2022/12/12 05:02:53;;;;;;;30.20;17.65;;;;;;;2.95;56.34;101062.28;4917990;29;20040;-73
2022/12/12 05:05:38;;;;;;;26.63;17.48;;;;;;;2.93;56.35;101069.44;4917812;29;20104;-73
2022/12/12 05:08:38;;;;;;;29.52;17.83;;;;;;;2.91;56.41;101072.16;4916871;29;20044;-73
2022/12/12 05:11:05;;;;;;;32.97;17.65;;;;;;;2.90;56.32;101074.84;4891882;29;20495;-74
2022/12/12 05:13:35;;;;;;;32.05;17.33;;;;;;;2.90;56.25;101077.50;4917588;29;20388;-73
2022/12/12 05:16:34;;;;;;;26.75;17.88;;;;;;;2.86;56.38;101084.69;4917685;29;20095;-74
2022/12/12 05:19:01;;;;;;;27.48;15.95;;;;;;;2.85;56.50;101083.84;4884418;29;20083;-74
2022/12/12 05:21:28;;;;;;;29.38;17.35;;;;;;;2.85;56.41;101075.00;4898730;29;20048;-73
2022/12/12 05:23:54;;;;;;;30.40;17.55;;;;;;;2.84;56.25;101074.16;4898565;29;20075;-73
2022/12/12 05:26:30;;;;;;;30.25;17.88;;;;;;;2.84;56.35;101075.94;4898571;29;20045;-74
2022/12/12 05:28:57;;;;;;;29.13;17.20;;;;;;;2.84;56.50;101079.47;4898566;29;20059;-73
2022/12/12 05:31:32;;;;;;;29.80;16.98;;;;;;;2.82;56.25;101078.66;4898423;29;20045;-72
2022/12/12 05:33:58;;;;;;;26.90;16.30;;;;;;;2.84;56.30;101073.28;4898427;29;20040;-73
2022/12/12 05:36:25;;;;;;;29.13;16.58;;;;;;;2.82;56.42;101069.81;4898633;29;20436;-74
2022/12/12 05:38:52;;;;;;;30.35;17.02;;;;;;;2.80;56.36;101071.66;4901191;29;20046;-73
2022/12/12 05:41:18;;;;;;;31.90;17.88;;;;;;;2.77;55.98;101075.28;4918345;29;20046;-75
2022/12/12 05:43:45;;;;;;;25.88;17.13;;;;;;;2.74;56.25;101071.88;4936269;29;20040;-74
2022/12/12 05:46:12;;;;;;;33.47;16.48;;;;;;;2.69;56.14;101074.69;4919195;29;20070;-74
2022/12/12 05:48:39;;;;;;;27.17;17.33;;;;;;;2.64;56.07;101075.78;4891488;29;20048;-73
2022/12/12 05:51:06;;;;;;;28.10;17.33;;;;;;;2.53;56.18;101077.00;4887635;29;20550;-73
2022/12/12 05:53:32;;;;;;;32.35;17.25;;;;;;;2.47;56.10;101085.16;4917037;29;20048;-73
2022/12/12 05:56:10;;;;;;;;;;;;;;;2.44;56.16;101087.06;4917628;29;20050;-73
2022/12/12 05:58:40;;;;;;;28.27;16.75;;;;;;;2.45;56.10;101094.97;4918631;29;19982;-74
2022/12/12 06:01:08;;;;;;;29.52;17.23;;;;;;;2.45;56.19;101088.78;4936316;29;20055;-72
2022/12/12 06:03:34;;;;;;;29.55;17.13;;;;;;;2.45;56.31;101097.63;4935996;29;20561;-72
2022/12/12 06:06:05;;;;;;;29.45;16.58;;;;;;;2.44;56.20;101095.88;4935912;29;20557;-72
2022/12/12 06:08:32;;;;;;;28.85;16.88;;;;;;;2.43;56.16;101096.81;4934543;29;20132;-73
2022/12/12 06:10:58;;;;;;;29.65;16.45;;;;;;;2.43;56.25;101095.94;4935845;29;20071;-72
2022/12/12 06:13:25;;;;;;;31.38;17.35;;;;;;;2.40;56.09;101096.91;4935994;29;20114;-73
2022/12/12 06:15:51;;;;;;;31.25;16.73;;;;;;;2.37;56.16;101097.00;4936012;29;20048;-73
2022/12/12 06:18:18;;;;;;;29.08;16.58;;;;;;;2.36;56.06;101099.72;4921538;29;20380;-74
2022/12/12 06:20:45;;;;;;;30.52;17.67;;;;;;;2.33;56.15;101099.81;4917265;29;20040;-74
2022/12/12 06:23:11;;;;;;;30.92;16.25;;;;;;;2.32;56.10;101104.25;4916826;29;20048;-72
2022/12/12 06:25:38;;;;;;;31.67;16.45;;;;;;;2.31;56.26;101104.28;4917068;29;20044;-74
2022/12/12 06:28:05;;;;;;;28.35;16.90;;;;;;;2.29;56.02;101099.03;4915865;29;20048;-74
2022/12/12 06:30:32;;;;;;;32.08;18.13;;;;;;;2.29;56.11;101106.13;4916963;29;20036;-74
2022/12/12 06:32:58;;;;;;;32.40;17.05;;;;;;;2.28;56.03;101113.22;4916770;29;20048;-74
2022/12/12 06:35:25;;;;;;;28.80;16.63;;;;;;;2.28;56.12;101115.00;4916772;29;20044;-73
2022/12/12 06:37:52;;;;;;;34.38;18.05;;;;;;;2.25;55.94;101113.31;4916846;29;20491;-73
2022/12/12 06:40:18;;;;;;;26.83;16.33;;;;;;;2.25;56.13;101115.97;4899203;29;20391;-72
2022/12/12 06:42:45;;;;;;;30.27;16.85;;;;;;;2.23;56.11;101115.13;4916735;29;20048;-73
2022/12/12 06:45:14;;;;;;;32.85;17.33;;;;;;;2.22;56.02;101116.03;4916874;29;20127;-73
2022/12/12 06:47:41;;;;;;;33.70;17.98;;;;;;;2.22;56.18;101119.53;4916594;29;20499;-73
2022/12/12 06:50:08;;;;;;;29.55;17.48;;;;;;;2.20;56.03;101121.38;4916881;29;20385;-74
2022/12/12 06:52:35;;;;;;;31.80;16.83;;;;;;;2.22;56.04;101121.31;4928539;29;20055;-74
2022/12/12 06:55:01;;;;;;;27.85;16.60;;;;;;;2.19;56.00;101127.59;4935651;29;20040;-74
2022/12/12 06:57:28;;;;;;;31.83;16.60;;;;;;;2.17;55.98;101128.56;4924295;29;20051;-73
2022/12/12 06:59:55;;;;;;;31.05;16.73;;;;;;;2.14;55.77;101134.81;4928526;29;20096;-73
2022/12/12 07:02:21;;;;;;;28.35;16.50;;;;;;;2.10;55.86;101135.84;4933035;29;20037;-73
2022/12/12 07:04:55;;;;;;;32.47;16.48;;;;;;;2.08;55.72;101136.78;4919382;29;20051;-73
2022/12/12 07:07:22;;;;;;;35.45;17.40;;;;;;;2.05;55.76;101137.75;4899864;29;20047;-74
2022/12/12 07:09:49;;;;;;;31.63;16.33;;;;;;;2.01;55.71;101140.56;4916619;29;20059;-73
2022/12/12 07:12:15;;;;;;;30.67;17.00;;;;;;;1.99;55.89;101142.38;4919702;29;20048;-73
2022/12/12 07:14:42;;;;;;;31.52;17.23;;;;;;;1.97;55.85;101147.72;4919507;29;20053;-70
2022/12/12 07:17:08;;;;;;;32.72;16.35;;;;;;;1.95;55.59;101144.25;4919580;29;20044;-71
2022/12/12 07:19:35;;;;;;;30.95;16.80;;;;;;;1.89;55.78;101142.66;4919688;29;20044;-73
2022/12/12 07:22:01;;;;;;;34.60;16.50;;;;;;;1.85;55.93;101145.47;4918264;29;20064;-73
2022/12/12 07:24:35;;;;;;;35.33;17.80;;;;;;;1.80;55.68;101140.31;4919756;29;20072;-72
2022/12/12 07:27:03;;;;;;;35.30;17.90;;;;;;;1.75;55.67;101149.28;4919469;29;20087;-72
2022/12/12 07:29:29;;;;;;;33.78;16.70;;;;;;;1.69;55.68;101142.41;4919533;29;20044;-72
2022/12/12 07:31:56;;;;;;;30.17;16.50;;;;;;;1.66;55.89;101149.56;4928544;29;20123;-72
2022/12/12 07:34:23;;;;;;;32.67;16.33;;;;;;;1.62;55.89;101147.94;4932641;29;20035;-72
2022/12/12 07:36:49;;;;;;;35.58;16.92;;;;;;;1.59;55.71;101159.47;4914346;29;20048;-72
2022/12/12 07:39:16;;;;;;;35.17;16.23;;;;;;;1.56;55.65;101160.44;4934082;29;20044;-71
2022/12/12 07:41:47;;;;;;;32.55;16.98;;;;;;;1.53;55.90;101163.16;4938421;29;20122;-72
2022/12/12 07:44:18;;;;;;;32.40;16.58;;;;;;;1.51;55.86;101166.75;4901619;29;20414;-72
2022/12/12 07:46:51;;;;;;;29.92;16.55;;;;;;;1.46;55.73;101163.34;4919027;29;20054;-72
2022/12/12 07:49:17;;;;;;;34.55;16.55;;;;;;;1.42;55.71;101159.94;4918872;29;20131;-72
2022/12/12 07:51:44;;;;;;;34.17;17.48;;;;;;;1.37;55.71;101164.47;4918756;29;20079;-72
2022/12/12 07:54:14;;;;;;;27.85;15.55;;;;;;;1.32;55.75;101163.75;4919456;29;20075;-72
2022/12/12 07:56:41;;;;;;;30.42;16.25;;;;;;;1.27;55.82;101168.28;4919163;29;20414;-72
2022/12/12 07:59:07;;;;;;;30.48;16.42;;;;;;;1.23;55.86;101167.50;4918853;29;20056;-68
2022/12/12 08:01:34;;;;;;;28.38;15.70;;;;;;;1.19;55.73;101172.94;4918785;29;20052;-70
2022/12/12 08:04:01;;;;;;;35.92;16.50;;;;;;;1.14;55.62;101173.06;4918918;29;20172;-70
2022/12/12 08:06:27;;;;;;;32.22;16.67;;;;;;;1.12;55.89;101184.59;4919017;29;20528;-70
2022/12/12 08:08:54;;;;;;;32.50;15.95;;;;;;;1.15;55.90;101181.84;4918587;29;20511;-70
2022/12/12 08:11:22;;;;;;;35.08;16.92;;;;;;;1.22;56.49;101183.44;4918892;29;20052;-71
2022/12/12 08:13:50;;;;;;;34.72;16.38;;;;;;;1.29;56.07;101190.28;4919388;29;20046;-71
2022/12/12 08:16:20;;;;;;;35.45;17.88;;;;;;;1.34;56.26;101180.44;4935045;29;20490;-70
2022/12/12 08:18:47;;;;;;;30.70;16.58;;;;;;;1.44;56.11;101189.84;4917766;29;20398;-73
2022/12/12 08:21:15;;;;;;;32.58;16.80;;;;;;;1.54;56.41;101191.38;4936211;29;20055;-72
2022/12/12 08:23:51;;;;;;;34.17;17.17;;;;;;;1.68;56.62;101196.25;4937009;29;20487;-72
2022/12/12 08:26:17;;;;;;;34.20;17.55;;;;;;;1.81;56.51;101197.63;4901376;29;20058;-72
2022/12/12 08:28:47;;;;;;;40.15;19.35;;;;;;;1.97;56.68;101199.84;4918402;29;20054;-71
2022/12/12 08:31:16;;;;;;;30.77;17.27;;;;;;;2.13;56.72;101203.75;4918206;29;20050;-70
2022/12/12 08:33:43;;;;;;;33.25;16.33;;;;;;;2.27;56.66;101198.06;4918380;29;20507;-71
2022/12/12 08:36:15;;;;;;;33.30;17.30;;;;;;;2.41;56.85;101204.66;4901650;29;20414;-71
2022/12/12 08:38:42;;;;;;;35.13;17.83;;;;;;;2.53;56.61;101201.59;4916065;29;20044;-71
2022/12/12 08:41:10;;;;;;;32.40;17.35;;;;;;;2.68;56.74;101199.38;4911147;29;20048;-71
2022/12/12 08:43:38;;;;;;;28.92;17.30;;;;;;;2.80;56.81;101206.94;4936724;29;20052;-71
2022/12/12 08:46:06;;;;;;;31.67;18.10;;;;;;;2.90;56.65;101203.03;4936817;29;20099;-71
2022/12/12 08:48:39;;;;;;;32.60;17.65;;;;;;;2.97;56.69;101199.25;4936481;29;20491;-71
2022/12/12 08:51:06;;;;;;;31.70;17.33;;;;;;;3.01;56.51;101194.75;4909128;29;20467;-71
2022/12/12 08:53:32;;;;;;;30.40;15.98;;;;;;;3.08;56.62;101194.50;4917534;29;20048;-71
2022/12/12 08:55:59;;;;;;;33.22;17.58;;;;;;;3.12;56.54;101193.47;4917115;29;20048;-72
2022/12/12 08:58:26;;;;;;;31.85;17.30;;;;;;;3.17;56.41;101193.31;4917420;29;20055;-71
2022/12/12 09:00:52;;;;;;;34.97;17.70;;;;;;;3.26;56.56;101189.47;4917795;29;20043;-72
2022/12/12 09:03:19;;;;;;;30.17;17.38;;;;;;;3.36;56.56;101186.41;4917650;29;20047;-72
2022/12/12 09:05:54;;;;;;;32.33;18.05;;;;;;;3.48;56.56;101196.59;4917866;29;20048;-72
2022/12/12 09:08:20;;;;;;;32.72;18.02;;;;;;;3.56;56.52;101198.97;4917742;29;20044;-72
2022/12/12 09:10:49;;;;;;;32.53;17.63;;;;;;;3.64;56.31;101196.91;4916918;29;20052;-72
2022/12/12 09:13:16;;;;;;;30.75;18.02;;;;;;;3.66;56.30;101199.50;4917394;29;20044;-71
2022/12/12 09:15:42;;;;;;;30.00;16.83;;;;;;;3.68;56.26;101203.81;4917400;29;20040;-71
2022/12/12 09:18:09;;;;;;;30.00;16.63;;;;;;;3.69;56.17;101205.56;4917412;29;20044;-71
2022/12/12 09:20:35;;;;;;;30.90;17.45;;;;;;;3.72;56.17;101208.13;4930715;29;20058;-72
2022/12/12 09:23:02;;;;;;;28.40;16.60;;;;;;;3.76;55.92;101195.59;4917234;29;20048;-71
2022/12/12 09:25:30;;;;;;;30.67;18.00;;;;;;;3.77;56.00;101195.56;4917155;29;20084;-71
2022/12/12 09:27:57;;;;;;;30.92;17.08;;;;;;;3.79;56.00;101200.81;4916309;29;20521;-71
2022/12/12 09:30:24;;;;;;;32.03;17.75;;;;;;;3.78;55.75;101199.94;4917273;29;20050;-71
2022/12/12 09:32:50;;;;;;;33.10;18.27;;;;;;;3.77;55.63;101208.84;4916375;29;20460;-71
2022/12/12 09:35:17;;;;;;;32.78;17.70;;;;;;;3.74;55.65;101208.94;4900262;29;20054;-71
2022/12/12 09:37:43;;;;;;;32.53;17.35;;;;;;;3.68;55.62;101210.94;4916292;29;20495;-72
2022/12/12 09:40:18;;;;;;;36.25;18.40;;;;;;;3.64;55.50;101207.53;4916274;29;20044;-73
2022/12/12 09:42:50;;;;;;;31.30;16.65;;;;;;;3.59;55.69;101206.81;4913893;29;20036;-72
2022/12/12 09:45:19;;;;;;;31.40;17.92;;;;;;;3.55;55.50;101214.97;4900163;29;20048;-71
2022/12/12 09:47:49;;;;;;;32.92;17.55;;;;;;;3.55;55.66;101217.63;4914603;29;20087;-73
2022/12/12 09:50:40;;;;;;;31.85;17.23;;;;;;;3.55;55.79;101213.16;4923106;29;20040;-71
2022/12/12 09:53:14;;;;;;;32.58;17.98;;;;;;;3.57;55.82;101213.13;4915349;29;20052;-72
2022/12/12 09:55:52;;;;;;;34.90;17.95;;;;;;;3.55;55.71;101212.31;4917084;29;20044;-72
2022/12/12 09:58:22;;;;;;;31.50;17.67;;;;;;;3.53;55.74;101214.16;4916838;29;20501;-72
2022/12/12 10:01:03;;;;;;;31.88;16.85;;;;;;;3.50;55.80;101213.34;4917142;29;20040;-72
2022/12/12 10:03:48;;;;;;;30.70;16.52;;;;;;;3.53;55.90;101217.66;4915828;29;20044;-70
2022/12/12 10:06:16;;;;;;;27.02;16.10;;;;;;;3.51;55.92;101206.25;4916972;29;20054;-72
2022/12/12 10:09:23;;;;;;;27.13;15.55;;;;;;;3.53;55.96;101207.03;4916389;29;20048;-72
2022/12/12 10:11:53;;;;;;;28.05;16.27;;;;;;;3.58;56.08;101210.41;4916878;29;20052;-72
2022/12/12 10:14:31;;;;;;;33.15;16.77;;;;;;;3.62;56.14;101206.72;4916933;29;20047;-72
2022/12/12 10:17:00;;;;;;;28.10;16.42;;;;;;;3.70;55.92;101212.59;4916640;29;20040;-71
2022/12/12 10:19:34;;;;;;;29.63;15.68;;;;;;;3.73;56.16;101204.56;4915672;29;20048;-71
2022/12/12 10:22:07;;;;;;;29.38;15.90;;;;;;;3.77;56.18;101200.00;4925572;29;20533;-71
2022/12/12 10:24:52;;;;;;;29.70;16.98;;;;;;;3.87;56.27;101193.41;4935780;29;20459;-72
2022/12/12 10:27:18;;;;;;;26.55;15.60;;;;;;;3.96;56.24;101187.75;4935497;29;20039;-71
2022/12/12 10:29:47;;;;;;;29.30;16.42;;;;;;;4.09;56.31;101181.03;4902819;29;20052;-71
2022/12/12 10:32:28;;;;;;;29.50;16.83;;;;;;;4.21;56.38;101186.78;4928173;29;20468;-72
2022/12/12 10:35:25;;;;;;;27.13;16.58;;;;;;;4.28;56.29;101183.84;4916767;29;20040;-71
2022/12/12 10:38:10;;;;;;;30.80;17.60;;;;;;;4.36;56.19;101188.84;4916596;29;20048;-71
2022/12/12 10:40:56;;;;;;;28.80;17.20;;;;;;;4.41;56.15;101186.88;4916802;29;20068;-71
2022/12/12 10:43:33;;;;;;;31.10;15.98;;;;;;;4.53;56.26;101188.19;4916829;29;20044;-71
2022/12/12 10:46:29;;;;;;;25.10;15.80;;;;;;;4.65;56.19;101193.00;4918685;29;20091;-72
2022/12/12 10:48:56;;;;;;;30.38;16.02;;;;;;;4.73;56.08;101175.81;4915824;29;20090;-74
2022/12/12 10:51:26;;;;;;;27.17;16.00;;;;;;;4.80;56.16;101176.41;4920124;29;20043;-70
2022/12/12 10:53:54;;;;;;;27.25;15.55;;;;;;;4.90;55.99;101171.56;4919980;29;20499;-70
2022/12/12 10:56:24;;;;;;;28.33;15.85;;;;;;;4.99;55.96;101171.19;4919927;29;20051;-72
2022/12/12 10:58:56;;;;;;;26.77;15.70;;;;;;;5.10;56.10;101174.25;4919677;29;20044;-71
2022/12/12 11:01:37;;;;;;;26.00;16.02;;;;;;;5.17;55.89;101185.50;4919968;29;20075;-71
2022/12/12 11:04:26;;;;;;;26.25;15.38;;;;;;;5.26;55.87;101170.00;4919954;29;20043;-72
2022/12/12 11:06:55;;;;;;;21.63;14.15;;;;;;;5.31;55.75;101168.00;4905175;29;20053;-71
2022/12/12 11:09:25;;;;;;;26.77;14.45;;;;;;;5.40;55.73;101164.06;4901612;29;20143;-72
2022/12/12 11:12:00;;;;;;;24.42;14.18;;;;;;;5.47;55.65;101162.88;4900771;29;20048;-72
2022/12/12 11:15:01;;;;;;;22.77;13.75;;;;;;;5.56;55.29;101164.25;4901019;29;20044;-71
2022/12/12 11:17:34;;;;;;;25.73;14.30;;;;;;;5.67;55.55;101169.94;4884227;29;20475;-72
2022/12/12 11:20:07;;;;;;;23.67;14.00;;;;;;;5.78;55.32;101166.78;4901078;29;20056;-72
2022/12/12 11:22:37;;;;;;;27.90;15.68;;;;;;;5.86;55.25;101160.16;4911682;29;20384;-72
2022/12/12 11:25:06;;;;;;;23.58;13.80;;;;;;;5.97;55.20;101154.41;4919523;29;20044;-71
2022/12/12 11:27:39;;;;;;;20.27;13.32;;;;;;;6.08;55.20;101162.75;4919614;29;20036;-71
2022/12/12 11:30:21;;;;;;;24.42;13.45;;;;;;;6.19;55.04;101163.09;4917889;29;20044;-72
2022/12/12 11:32:50;;;;;;;23.77;14.55;;;;;;;6.25;54.94;101162.81;4919337;29;20135;-72
2022/12/12 11:35:38;;;;;;;20.95;13.98;;;;;;;6.29;54.74;101161.72;4919255;29;20055;-72
2022/12/12 11:38:17;;;;;;;23.13;13.90;;;;;;;6.35;54.84;101161.44;4917201;29;20048;-71
2022/12/12 11:40:45;;;;;;;22.85;13.45;;;;;;;6.35;54.72;101160.56;4919427;29;20093;-72
2022/12/12 11:43:26;;;;;;;20.02;13.43;;;;;;;6.41;54.75;101156.72;4919055;29;20100;-72
2022/12/12 11:46:01;;;;;;;21.13;13.50;;;;;;;6.43;54.48;101153.06;4919271;29;20055;-72
2022/12/12 11:48:50;;;;;;;23.25;13.48;;;;;;;6.39;54.25;101151.47;4918721;29;20044;-71
2022/12/12 11:51:33;;;;;;;21.48;12.55;;;;;;;6.35;54.18;101152.56;4901382;29;20120;-71
2022/12/12 11:54:03;;;;;;;21.63;12.95;;;;;;;6.34;54.25;101154.38;4919048;29;20040;-72